Time;durP1;ratioP1;P1;durP2;ratioP2;P2;SDS_P1;SDS_P2;PMS_P1;PMS_P2;Temp;Humidity;BMP_temperature;BMP_pressure;BME280_temperature;BME280_humidity;BME280_pressure;Samples;Min_cycle;Max_cycle;Signal;HPM_P1;HPM_P2
2023/06/05 00:02:52;;;;;;;5.32;2.50;;;;;;;12.27;47.28;100685.00;30870445;28;97380;-66
2023/06/05 00:17:55;;;;;;;3.75;2.10;;;;;;;12.03;48.12;100684.03;30857044;28;110217;-65
2023/06/05 00:32:56;;;;;;;4.07;2.10;;;;;;;11.81;48.77;100675.63;30974316;28;97206;-64
2023/06/05 00:47:57;;;;;;;5.67;2.50;;;;;;;11.62;49.25;100674.13;30973210;28;97052;-64
2023/06/05 01:02:58;;;;;;;3.50;2.17;;;;;;;11.44;49.47;100670.75;30971659;28;97229;-65
2023/06/05 01:18:00;;;;;;;4.47;2.23;;;;;;;11.26;49.94;100660.22;30984015;28;99141;-65
2023/06/05 01:33:13;;;;;;;8.63;2.47;;;;;;;11.06;50.71;100657.84;30989954;28;96698;-65
2023/06/05 01:48:14;;;;;;;6.87;2.50;;;;;;;10.89;51.11;100661.44;30989632;28;96713;-66
2023/06/05 02:03:17;;;;;;;5.40;2.17;;;;;;;10.70;52.05;100657.19;30988054;28;97689;-66
2023/06/05 02:18:18;;;;;;;7.87;2.40;;;;;;;10.50;52.66;100652.94;30985486;28;96858;-66
2023/06/05 02:33:19;;;;;;;10.50;2.55;;;;;;;10.32;53.01;100650.31;30983663;28;106992;-66
2023/06/05 02:48:19;;;;;;;10.30;2.85;;;;;;;10.18;53.60;100644.72;30845194;28;97164;-66
2023/06/05 03:03:20;;;;;;;7.13;3.00;;;;;;;10.16;54.55;100644.88;30857861;28;97441;-65
2023/06/05 03:18:23;;;;;;;11.18;3.08;;;;;;;10.27;54.78;100662.44;30853150;28;96844;-65
2023/06/05 03:33:23;;;;;;;6.30;2.73;;;;;;;10.29;55.45;100661.28;30854859;28;97465;-65
2023/06/05 03:48:25;;;;;;;6.60;3.22;;;;;;;10.56;55.36;100663.97;30756464;28;96783;-64
2023/06/05 04:03:27;;;;;;;5.60;2.73;;;;;;;10.79;55.50;100683.72;30729320;28;96835;-68
2023/06/05 04:18:28;;;;;;;9.17;2.93;;;;;;;11.05;55.06;100682.81;30726828;28;96814;-64
2023/06/05 04:33:28;;;;;;;19.60;4.10;;;;;;;11.45;54.69;100686.59;30724482;28;96978;-64
2023/06/05 04:48:30;;;;;;;6.40;3.03;;;;;;;11.98;54.34;100678.34;30722406;28;111072;-66
2023/06/05 05:03:31;;;;;;;7.50;3.00;;;;;;;12.51;54.23;100668.91;30787504;28;96710;-65
2023/06/05 05:18:31;;;;;;;7.90;2.70;;;;;;;13.16;53.20;100676.84;30867903;28;98413;-65
2023/06/05 05:33:32;;;;;;;8.13;2.42;;;;;;;13.94;52.73;100675.03;30867286;28;97563;-65
2023/06/05 05:48:35;;;;;;;7.57;2.65;;;;;;;14.74;51.84;100678.09;30864726;28;96663;-65
2023/06/05 06:03:37;;;;;;;4.87;2.47;;;;;;;15.45;50.55;100679.34;30862865;28;96826;-65
2023/06/05 06:18:37;;;;;;;5.63;2.10;;;;;;;16.07;49.62;100688.63;30861756;28;97437;-65
2023/06/05 06:33:37;;;;;;;7.63;2.75;;;;;;;16.95;48.02;100695.41;30859190;28;107159;-65
2023/06/05 06:48:38;;;;;;;9.35;2.95;;;;;;;17.91;46.36;100692.59;30857801;28;97038;-65
2023/06/05 07:03:40;;;;;;;3.15;1.80;;;;;;;19.10;44.19;100689.09;30856667;28;96924;-65
2023/06/05 07:18:40;;;;;;;;;;;;;;;19.91;41.67;100692.97;30856482;28;97371;-65
2023/06/05 07:33:42;;;;;;;9.85;2.17;;;;;;;20.71;39.60;100696.00;30857288;28;96664;-65
2023/06/05 07:48:42;;;;;;;6.37;2.03;;;;;;;21.42;37.63;100699.94;30852843;28;96937;-65
2023/06/05 08:03:43;;;;;;;6.77;2.33;;;;;;;22.26;35.88;100687.38;30852008;28;111727;-65
2023/06/05 08:18:44;;;;;;;2.50;1.30;;;;;;;22.91;33.00;100678.25;30852593;28;96595;-65
2023/06/05 08:33:44;;;;;;;6.68;2.15;;;;;;;23.42;31.71;100674.91;30838053;28;97025;-65
2023/06/05 08:48:47;;;;;;;3.58;1.33;;;;;;;24.49;29.50;100674.97;30792471;28;97368;-65
2023/06/05 09:03:47;;;;;;;3.80;1.53;;;;;;;25.41;27.72;100653.50;30748647;28;97319;-65
2023/06/05 09:18:57;;;;;;;3.50;1.30;;;;;;;25.71;26.34;100659.47;30745868;28;98879;-65
2023/06/05 09:33:58;;;;;;;7.57;1.40;;;;;;;26.87;23.65;100639.72;30744217;28;96748;-68
2023/06/05 09:49:01;;;;;;;5.43;1.45;;;;;;;27.31;22.97;100626.41;30744732;28;109205;-68
2023/06/05 10:04:06;;;;;;;3.23;1.20;;;;;;;27.59;21.23;100628.94;30821023;28;97796;-66
2023/06/05 10:19:07;;;;;;;4.00;1.60;;;;;;;27.69;20.88;100602.38;30852149;28;97369;-65
2023/06/05 10:34:34;;;;;;;3.50;1.60;;;;;;;29.35;20.47;100600.63;30852712;28;97211;-68
2023/06/05 10:49:35;;;;;;;3.80;1.83;;;;;;;29.46;20.33;100581.38;30850039;28;96740;-66
2023/06/05 11:04:58;;;;;;;5.60;1.70;;;;;;;30.01;19.92;100575.63;30848168;28;99499;-69
2023/06/05 11:20:00;;;;;;;3.77;1.50;;;;;;;29.83;20.25;100568.94;30845294;28;97226;-68
2023/06/05 11:35:01;;;;;;;7.43;1.87;;;;;;;29.59;20.21;100561.47;30846538;28;96749;-69
2023/06/05 11:50:08;;;;;;;3.10;1.47;;;;;;;30.71;19.14;100539.31;30776811;28;97296;-69
2023/06/05 12:05:09;;;;;;;4.60;1.50;;;;;;;31.42;18.41;100532.97;30730812;28;96748;-76
2023/06/05 12:20:10;;;;;;;4.97;1.73;;;;;;;31.85;18.64;100516.22;30729420;28;96806;-69
2023/06/05 12:35:20;;;;;;;3.17;1.45;;;;;;;32.25;18.23;100501.94;30824387;28;97546;-69
2023/06/05 12:50:21;;;;;;;2.20;1.23;;;;;;;31.66;17.59;100501.75;30841476;28;96808;-69
2023/06/05 13:05:21;;;;;;;5.15;1.65;;;;;;;31.25;17.86;100480.41;30792888;28;97388;-70
2023/06/05 13:20:21;;;;;;;3.42;1.55;;;;;;;30.13;18.74;100462.59;30745105;28;96604;-69
2023/06/05 13:35:22;;;;;;;3.65;1.60;;;;;;;30.81;18.53;100455.00;30745066;28;97489;-68
2023/06/05 13:50:22;;;;;;;4.25;1.70;;;;;;;30.71;18.45;100437.56;30742557;28;96931;-68
2023/06/05 14:05:23;;;;;;;5.82;1.60;;;;;;;30.69;18.68;100423.31;30728228;28;117711;-68
2023/06/05 14:20:23;;;;;;;6.63;1.60;;;;;;;29.69;19.50;100423.31;30740303;28;96938;-68
2023/06/05 14:35:24;;;;;;;3.15;1.75;;;;;;;29.69;19.58;100421.38;30739765;28;96715;-68
2023/06/05 14:50:24;;;;;;;3.90;1.55;;;;;;;29.52;19.72;100415.53;30738251;28;96988;-68
2023/06/05 15:05:24;;;;;;;3.35;1.25;;;;;;;28.95;20.50;100407.03;30736540;28;96790;-68
2023/06/05 15:20:25;;;;;;;3.05;1.48;;;;;;;28.09;21.09;100390.94;30733465;28;101213;-69
2023/06/05 15:35:27;;;;;;;4.40;1.60;;;;;;;28.02;21.29;100386.59;30733907;28;97265;-68
2023/06/05 15:50:28;;;;;;;2.47;1.43;;;;;;;27.99;21.93;100373.41;30732347;28;97254;-69
2023/06/05 16:05:28;;;;;;;2.92;1.60;;;;;;;27.37;22.23;100370.16;30784771;28;97068;-68
2023/06/05 16:20:28;;;;;;;3.40;1.73;;;;;;;26.77;22.63;100361.78;30840202;28;104286;-69
2023/06/05 16:35:29;;;;;;;2.75;1.70;;;;;;;26.58;22.94;100351.34;30736208;28;97459;-69
2023/06/05 16:50:30;;;;;;;3.00;1.40;;;;;;;26.38;23.79;100348.63;30734072;28;96813;-70
2023/06/05 17:05:30;;;;;;;4.60;1.92;;;;;;;25.90;24.12;100344.13;30745388;28;97630;-68
2023/06/05 17:20:30;;;;;;;5.28;1.95;;;;;;;25.35;24.62;100335.50;30751429;28;96920;-69
2023/06/05 17:35:31;;;;;;;6.32;1.88;;;;;;;24.82;25.52;100341.72;30802077;28;97751;-68
2023/06/05 17:50:32;;;;;;;4.38;1.80;;;;;;;24.40;26.45;100344.31;30800312;28;96886;-68
2023/06/05 18:05:32;;;;;;;5.05;1.77;;;;;;;23.95;27.28;100339.00;30800042;28;96914;-69
2023/06/05 18:20:33;;;;;;;3.63;1.80;;;;;;;23.71;27.69;100340.31;30817163;28;96697;-70
2023/06/05 18:35:33;;;;;;;10.00;2.30;;;;;;;23.76;27.61;100340.41;30845798;28;97032;-70
2023/06/05 18:50:33;;;;;;;3.72;2.03;;;;;;;23.72;28.10;100348.22;30860385;28;96930;-70
2023/06/05 19:05:34;;;;;;;6.38;3.15;;;;;;;23.17;30.78;100371.72;30857324;28;96727;-70
2023/06/05 19:20:34;;;;;;;5.35;3.22;;;;;;;21.46;37.11;100394.06;30858404;28;97515;-71
2023/06/05 19:35:35;;;;;;;7.47;3.60;;;;;;;20.36;42.35;100421.41;30856009;28;97031;-71
2023/06/05 19:50:36;;;;;;;8.93;3.40;;;;;;;19.65;45.84;100415.63;30856677;28;97333;-70
2023/06/05 20:05:36;;;;;;;9.25;3.00;;;;;;;19.10;48.85;100419.06;30856003;28;96762;-71
2023/06/05 20:20:36;;;;;;;6.43;3.70;;;;;;;18.73;50.79;100403.53;30873425;28;96885;-70
2023/06/05 20:35:40;;;;;;;5.30;3.72;;;;;;;18.78;52.10;100400.19;30893994;28;96768;-69
2023/06/05 20:50:47;;;;;;;6.57;3.57;;;;;;;18.60;52.70;100415.28;30863133;28;97360;-68
2023/06/05 21:05:47;;;;;;;5.30;4.10;;;;;;;18.33;54.27;100419.16;30799960;28;97728;-68
2023/06/05 21:20:48;;;;;;;7.07;4.15;;;;;;;18.20;55.46;100418.19;30810194;28;97612;-68
2023/06/05 21:35:48;;;;;;;8.07;4.18;;;;;;;18.11;56.20;100424.84;30828092;28;115434;-67
2023/06/05 21:50:48;;;;;;;7.00;4.50;;;;;;;18.05;57.03;100429.25;30866234;28;98312;-68
2023/06/05 22:05:49;;;;;;;7.05;4.45;;;;;;;18.04;57.78;100421.38;30864492;28;97131;-67
2023/06/05 22:20:50;;;;;;;8.85;4.47;;;;;;;17.97;58.31;100431.34;30863977;28;96698;-66
2023/06/05 22:35:51;;;;;;;8.80;4.50;;;;;;;17.84;59.19;100433.03;30861873;28;97611;-68
2023/06/05 22:50:53;;;;;;;5.47;4.05;;;;;;;17.95;59.54;100428.03;30782688;28;97399;-67
2023/06/05 23:05:53;;;;;;;11.10;5.00;;;;;;;17.94;59.83;100427.22;30795612;28;97474;-67
2023/06/05 23:20:53;;;;;;;7.82;4.10;;;;;;;17.94;60.21;100408.34;30932318;28;96754;-68
2023/06/05 23:35:54;;;;;;;7.18;4.28;;;;;;;18.01;60.06;100416.41;30912611;28;117458;-68
2023/06/05 23:50:54;;;;;;;6.57;4.40;;;;;;;18.05;59.83;100423.03;30916193;28;100643;-68
